Time;durP1;ratioP1;P1;durP2;ratioP2;P2;SDS_P1;SDS_P2;PMS_P1;PMS_P2;Temp;Humidity;BMP_temperature;BMP_pressure;BME280_temperature;BME280_humidity;BME280_pressure;Samples;Min_cycle;Max_cycle;Signal;HPM_P1;HPM_P2
2023/09/05 00:00:06;;;;;;;14.05;12.02;;;18.40;82.10;;;;;;4966695;28;20038;-74
2023/09/05 00:02:32;;;;;;;14.68;13.07;;;18.40;82.10;;;;;;4964147;28;20035;-73
2023/09/05 00:04:58;;;;;;;17.65;13.43;;;18.40;82.10;;;;;;4971933;28;20029;-74
2023/09/05 00:07:24;;;;;;;16.10;11.77;;;18.40;82.10;;;;;;4962372;28;20029;-77
2023/09/05 00:09:50;;;;;;;15.55;13.27;;;18.40;82.10;;;;;;4973044;28;20110;-74
2023/09/05 00:12:16;;;;;;;17.15;13.40;;;18.40;82.10;;;;;;4968370;28;20061;-73
2023/09/05 00:14:41;;;;;;;15.60;13.82;;;18.30;82.10;;;;;;4975147;28;20026;-76
2023/09/05 00:17:07;;;;;;;17.83;13.95;;;18.30;81.80;;;;;;4965025;28;20039;-73
2023/09/05 00:19:33;;;;;;;17.35;13.05;;;18.30;81.90;;;;;;4964398;28;20049;-74
2023/09/05 00:21:58;;;;;;;15.68;12.57;;;18.30;82.00;;;;;;4962896;28;20404;-73
2023/09/05 00:24:32;;;;;;;15.68;13.70;;;18.20;82.10;;;;;;4966867;28;20088;-76
2023/09/05 00:26:59;;;;;;;14.93;13.32;;;18.20;82.10;;;;;;4965352;28;20043;-75
2023/09/05 00:29:30;;;;;;;16.25;14.18;;;18.10;82.20;;;;;;4966610;28;20103;-73
2023/09/05 00:31:58;;;;;;;15.30;13.60;;;18.10;82.30;;;;;;4965712;28;20125;-74
2023/09/05 00:34:26;;;;;;;17.05;14.35;;;18.10;82.50;;;;;;4964319;28;20130;-73
2023/09/05 00:36:52;;;;;;;15.98;13.73;;;18.10;82.60;;;;;;4977362;28;20123;-74
2023/09/05 00:39:19;;;;;;;16.52;13.77;;;18.10;82.60;;;;;;4964579;28;20109;-77
2023/09/05 00:41:45;;;;;;;15.57;13.10;;;18.00;82.70;;;;;;4964130;28;20484;-76
2023/09/05 00:44:13;;;;;;;14.10;12.65;;;18.10;82.70;;;;;;4960159;28;20058;-82
2023/09/05 00:46:44;;;;;;;16.17;13.63;;;18.10;82.60;;;;;;4966631;28;20027;-73
2023/09/05 00:49:15;;;;;;;15.68;14.02;;;18.00;82.60;;;;;;4967216;28;20030;-76
2023/09/05 00:51:49;;;;;;;14.85;12.60;;;18.00;82.60;;;;;;4963192;28;20756;-73
2023/09/05 00:54:14;;;;;;;15.18;12.68;;;17.90;82.80;;;;;;4961636;28;20030;-74
2023/09/05 00:56:40;;;;;;;16.38;13.57;;;17.90;83.00;;;;;;4973041;28;20359;-73
2023/09/05 00:59:06;;;;;;;15.20;13.60;;;17.90;83.00;;;;;;4967406;28;20031;-74
2023/09/05 01:01:31;;;;;;;14.63;12.57;;;17.90;82.90;;;;;;4963506;28;20063;-76
2023/09/05 01:03:57;;;;;;;14.65;12.40;;;17.80;83.00;;;;;;4965388;28;20097;-82
2023/09/05 01:06:52;;;;;;;14.57;13.07;;;17.80;83.10;;;;;;4966275;28;20163;-75
2023/09/05 01:09:45;;;;;;;15.07;13.00;;;17.80;83.20;;;;;;4958817;28;20037;-80
2023/09/05 01:12:11;;;;;;;15.93;13.02;;;17.80;83.20;;;;;;4959135;28;20031;-73
2023/09/05 01:14:36;;;;;;;16.42;13.32;;;17.80;83.20;;;;;;4966004;28;20027;-73
2023/09/05 01:17:05;;;;;;;15.18;13.32;;;17.80;83.10;;;;;;4967891;28;20088;-79
2023/09/05 01:19:37;;;;;;;16.85;12.80;;;17.80;83.20;;;;;;4965143;28;20878;-76
2023/09/05 01:22:39;;;;;;;15.05;13.55;;;17.80;83.10;;;;;;4964925;28;20039;-78
2023/09/05 01:25:06;;;;;;;14.25;12.75;;;17.80;83.00;;;;;;4971841;28;20023;-82
2023/09/05 01:27:32;;;;;;;17.40;12.70;;;17.80;83.10;;;;;;4963293;28;20366;-80
2023/09/05 01:29:58;;;;;;;14.73;12.40;;;17.70;83.10;;;;;;4960524;28;20030;-73
2023/09/05 01:32:24;;;;;;;15.07;12.35;;;17.70;83.20;;;;;;4962981;28;20034;-73
2023/09/05 01:34:49;;;;;;;15.60;13.00;;;17.70;83.20;;;;;;4967484;28;20026;-84
2023/09/05 01:37:15;;;;;;;13.35;11.95;;;17.70;83.20;;;;;;4968320;28;20022;-74
2023/09/05 01:39:42;;;;;;;16.17;12.82;;;17.70;83.30;;;;;;4966113;28;20035;-85
2023/09/05 01:42:07;;;;;;;13.63;11.93;;;17.70;83.20;;;;;;4964403;28;20046;-73
2023/09/05 01:44:35;;;;;;;13.70;12.23;;;17.70;83.30;;;;;;4956964;28;20023;-74
2023/09/05 01:47:02;;;;;;;15.13;12.52;;;17.60;83.30;;;;;;4967017;28;20105;-78
2023/09/05 01:49:27;;;;;;;15.60;13.48;;;17.60;83.50;;;;;;4968838;28;20023;-73
2023/09/05 01:51:53;;;;;;;13.75;12.25;;;17.60;83.50;;;;;;4969626;28;20035;-74
2023/09/05 01:54:19;;;;;;;14.52;12.85;;;17.60;83.50;;;;;;4968031;28;20027;-74
2023/09/05 01:56:45;;;;;;;13.63;12.10;;;17.50;83.60;;;;;;4967761;28;20039;-73
2023/09/05 01:59:12;;;;;;;14.90;12.95;;;17.50;83.60;;;;;;4968398;28;20041;-77
2023/09/05 02:01:38;;;;;;;14.45;12.35;;;17.50;83.70;;;;;;4963363;28;20027;-74
2023/09/05 02:04:04;;;;;;;15.18;12.82;;;17.50;83.60;;;;;;4971420;28;20023;-74
2023/09/05 02:06:29;;;;;;;16.13;13.27;;;17.50;83.70;;;;;;4976310;28;20156;-76
2023/09/05 02:08:55;;;;;;;15.07;11.95;;;17.40;83.70;;;;;;4967653;28;20091;-73
2023/09/05 02:11:21;;;;;;;14.95;12.45;;;17.40;83.70;;;;;;4962718;28;20094;-80
2023/09/05 02:13:46;;;;;;;16.70;12.55;;;17.50;83.70;;;;;;4971589;28;20544;-74
2023/09/05 02:16:18;;;;;;;16.77;13.38;;;17.40;83.70;;;;;;4971167;28;20027;-75
2023/09/05 02:18:46;;;;;;;17.02;12.52;;;17.50;83.70;;;;;;4976076;28;20058;-77
2023/09/05 02:21:12;;;;;;;14.95;13.35;;;17.40;83.60;;;;;;4970044;28;20034;-74
2023/09/05 02:23:37;;;;;;;16.92;13.27;;;17.50;83.70;;;;;;4966361;28;20357;-73
2023/09/05 02:26:03;;;;;;;18.15;13.52;;;17.40;83.60;;;;;;4967248;28;20457;-74
2023/09/05 02:28:29;;;;;;;14.60;12.80;;;17.30;83.60;;;;;;4963875;28;20043;-73
2023/09/05 02:30:55;;;;;;;14.23;11.93;;;17.30;83.60;;;;;;4975749;28;20565;-77
2023/09/05 02:33:22;;;;;;;18.00;13.15;;;17.30;83.80;;;;;;4978336;28;21303;-88
2023/09/05 02:35:48;;;;;;;17.20;13.77;;;17.30;83.80;;;;;;4966974;28;20053;-73
2023/09/05 02:38:15;;;;;;;16.58;13.35;;;17.30;83.90;;;;;;4979308;28;20035;-76
2023/09/05 02:40:45;;;;;;;16.77;13.93;;;17.30;83.80;;;;;;4968548;28;20031;-78
2023/09/05 02:43:11;;;;;;;14.60;12.50;;;17.30;83.80;;;;;;4955465;28;20648;-81
2023/09/05 02:45:37;;;;;;;16.88;13.40;;;17.20;83.80;;;;;;4947695;28;20431;-77
2023/09/05 02:48:03;;;;;;;14.60;12.43;;;17.20;83.80;;;;;;4948956;28;20126;-84
2023/09/05 02:50:29;;;;;;;17.08;12.93;;;17.20;83.80;;;;;;4951227;28;20038;-74
2023/09/05 02:52:55;;;;;;;19.02;13.60;;;17.20;83.80;;;;;;4943689;28;20111;-77
2023/09/05 02:55:21;;;;;;;16.38;13.55;;;17.20;83.90;;;;;;4970480;28;20126;-79
2023/09/05 02:57:46;;;;;;;16.30;13.35;;;17.20;83.90;;;;;;4948849;28;20081;-73
2023/09/05 03:00:12;;;;;;;15.48;13.02;;;17.20;83.70;;;;;;4942634;28;20085;-78
2023/09/05 03:02:40;;;;;;;15.68;12.95;;;17.10;83.70;;;;;;4944888;28;20639;-75
2023/09/05 03:05:06;;;;;;;14.95;12.38;;;17.10;83.80;;;;;;4942451;28;20050;-80
2023/09/05 03:07:32;;;;;;;19.88;13.48;;;17.10;83.90;;;;;;4963199;28;20134;-86
2023/09/05 03:09:58;;;;;;;16.50;13.55;;;17.10;84.00;;;;;;4949807;28;20590;-72
2023/09/05 03:12:24;;;;;;;17.75;13.77;;;17.10;84.10;;;;;;4948245;28;20039;-72
2023/09/05 03:14:49;;;;;;;16.20;12.40;;;17.10;84.10;;;;;;4950474;28;20118;-81
2023/09/05 03:17:15;;;;;;;14.55;12.93;;;17.00;84.20;;;;;;4951933;28;20039;-73
2023/09/05 03:19:41;;;;;;;16.35;13.13;;;17.00;84.20;;;;;;4947558;28;20032;-79
2023/09/05 03:22:07;;;;;;;19.13;13.57;;;17.00;84.20;;;;;;4945754;28;20127;-76
2023/09/05 03:24:34;;;;;;;17.00;12.88;;;17.00;84.10;;;;;;4941723;28;20031;-73
2023/09/05 03:27:00;;;;;;;20.25;13.80;;;17.00;84.20;;;;;;4949771;28;20130;-75
2023/09/05 03:29:26;;;;;;;17.75;12.93;;;16.90;84.10;;;;;;4947913;28;20698;-73
2023/09/05 03:31:52;;;;;;;21.98;13.20;;;16.90;84.20;;;;;;4948637;28;20156;-73
2023/09/05 03:34:20;;;;;;;19.55;13.85;;;16.90;84.30;;;;;;4947969;28;20105;-76
2023/09/05 03:36:45;;;;;;;15.65;12.82;;;16.90;84.40;;;;;;4947488;28;20432;-73
2023/09/05 03:39:11;;;;;;;17.27;12.95;;;16.90;84.30;;;;;;4949564;28;20081;-74
2023/09/05 03:41:37;;;;;;;18.10;13.60;;;16.90;84.20;;;;;;4944339;28;20035;-75
2023/09/05 03:44:02;;;;;;;17.50;12.70;;;16.90;84.20;;;;;;4950965;28;20022;-77
2023/09/05 03:46:28;;;;;;;18.65;13.20;;;16.90;84.10;;;;;;4950635;28;20741;-78
2023/09/05 03:48:55;;;;;;;21.45;13.35;;;16.90;84.00;;;;;;4948607;28;20035;-86
2023/09/05 03:51:21;;;;;;;15.00;13.45;;;16.90;84.10;;;;;;4956290;28;20039;-87
2023/09/05 03:53:47;;;;;;;18.75;13.30;;;16.90;84.10;;;;;;4947252;28;20040;-73
2023/09/05 03:56:13;;;;;;;14.68;12.75;;;16.80;84.10;;;;;;4946019;28;20027;-80
2023/09/05 03:58:39;;;;;;;14.55;12.90;;;16.80;84.20;;;;;;4948246;28;20122;-78
2023/09/05 04:01:11;;;;;;;16.38;12.63;;;16.80;84.20;;;;;;4948393;28;20039;-80
2023/09/05 04:03:37;;;;;;;15.55;12.85;;;16.80;84.40;;;;;;4948388;28;20039;-73
2023/09/05 04:06:03;;;;;;;15.50;12.15;;;16.80;84.40;;;;;;4945470;28;20045;-73
2023/09/05 04:08:28;;;;;;;14.95;12.43;;;16.80;84.30;;;;;;4947144;28;20114;-77
2023/09/05 04:10:59;;;;;;;15.20;12.68;;;16.80;84.40;;;;;;4947228;28;20034;-73
2023/09/05 04:13:25;;;;;;;17.30;13.68;;;16.70;84.40;;;;;;4955669;28;20032;-75
2023/09/05 04:15:51;;;;;;;15.63;12.18;;;16.70;84.40;;;;;;4971304;28;20050;-76
2023/09/05 04:18:18;;;;;;;14.82;12.18;;;16.70;84.40;;;;;;4946190;28;20544;-75
2023/09/05 04:20:43;;;;;;;13.90;12.20;;;16.70;84.50;;;;;;4947569;28;20038;-83
2023/09/05 04:23:09;;;;;;;15.57;13.35;;;16.60;84.60;;;;;;4948874;28;20341;-74
2023/09/05 04:25:39;;;;;;;17.17;13.52;;;16.60;84.60;;;;;;4953293;28;20023;-73
2023/09/05 04:28:06;;;;;;;16.95;15.15;;;16.60;84.70;;;;;;4948676;28;20156;-74
2023/09/05 04:30:33;;;;;;;16.65;14.43;;;16.60;84.60;;;;;;4951019;28;20100;-78
2023/09/05 04:33:00;;;;;;;16.08;13.40;;;16.60;84.70;;;;;;4949273;28;20070;-77
2023/09/05 04:35:26;;;;;;;15.30;12.88;;;16.60;84.70;;;;;;4940883;28;20058;-78
2023/09/05 04:37:52;;;;;;;17.85;13.88;;;16.50;84.90;;;;;;4949360;28;20097;-77
2023/09/05 04:40:18;;;;;;;19.17;14.00;;;16.50;85.00;;;;;;4946905;28;20053;-75
2023/09/05 04:42:44;;;;;;;18.80;14.13;;;16.50;85.10;;;;;;4951477;28;20088;-77
2023/09/05 04:45:10;;;;;;;16.20;12.85;;;16.50;85.00;;;;;;4945078;28;20051;-73
2023/09/05 04:47:35;;;;;;;20.17;14.00;;;16.50;85.10;;;;;;4974322;28;20485;-74
2023/09/05 04:50:01;;;;;;;14.95;12.38;;;16.50;85.20;;;;;;4949616;28;20806;-80
2023/09/05 04:52:28;;;;;;;14.68;12.38;;;16.50;85.20;;;;;;4942707;28;20542;-77
2023/09/05 04:54:55;;;;;;;15.55;13.18;;;16.50;85.20;;;;;;4946274;28;20170;-84
2023/09/05 04:57:21;;;;;;;22.20;13.95;;;16.50;85.20;;;;;;4940139;28;20118;-85
2023/09/05 04:59:47;;;;;;;15.40;12.13;;;16.50;85.20;;;;;;4965578;28;20406;-78
2023/09/05 05:02:16;;;;;;;13.48;11.85;;;16.50;85.20;;;;;;4949232;28;20135;-82
2023/09/05 05:04:43;;;;;;;16.38;13.65;;;16.50;85.30;;;;;;4954957;28;20034;-74
2023/09/05 05:07:09;;;;;;;18.20;13.80;;;16.50;85.20;;;;;;4949897;28;20474;-76
2023/09/05 05:09:35;;;;;;;15.43;12.40;;;16.40;85.20;;;;;;4943821;28;20031;-78
2023/09/05 05:12:01;;;;;;;16.83;12.85;;;16.40;85.30;;;;;;4946693;28;20035;-74
2023/09/05 05:14:28;;;;;;;16.92;13.18;;;16.40;85.30;;;;;;4953781;28;20434;-75
2023/09/05 05:16:53;;;;;;;18.23;13.65;;;16.40;85.20;;;;;;4946042;28;20028;-74
2023/09/05 05:19:21;;;;;;;16.17;12.43;;;16.40;85.20;;;;;;4942801;28;20081;-74
2023/09/05 05:21:47;;;;;;;18.15;12.38;;;16.40;85.20;;;;;;4940638;28;20036;-77
2023/09/05 05:24:13;;;;;;;19.67;13.48;;;16.40;85.10;;;;;;4938511;28;20035;-76
2023/09/05 05:26:39;;;;;;;17.92;14.07;;;16.40;85.00;;;;;;4939182;28;20373;-76
2023/09/05 05:29:04;;;;;;;15.52;12.63;;;16.40;85.10;;;;;;4942354;28;20047;-79
2023/09/05 05:31:31;;;;;;;17.35;12.85;;;16.40;85.10;;;;;;4940082;28;20035;-77
2023/09/05 05:33:57;;;;;;;14.18;12.52;;;16.50;85.00;;;;;;4948378;28;20043;-78
2023/09/05 05:36:23;;;;;;;15.82;12.68;;;16.50;85.10;;;;;;4944838;28;20133;-77
2023/09/05 05:38:49;;;;;;;15.05;12.80;;;16.50;85.00;;;;;;4949551;28;20043;-76
2023/09/05 05:41:15;;;;;;;17.23;13.20;;;16.50;84.80;;;;;;4959224;28;20039;-78
2023/09/05 05:43:41;;;;;;;14.35;11.25;;;16.50;84.60;;;;;;4963285;28;21066;-76
2023/09/05 05:46:09;;;;;;;18.33;13.18;;;16.60;84.60;;;;;;4958593;28;20034;-76
2023/09/05 05:48:35;;;;;;;16.50;13.65;;;16.60;84.40;;;;;;4960561;28;20060;-77
2023/09/05 05:51:01;;;;;;;16.92;13.52;;;16.60;84.10;;;;;;4959520;28;20781;-78
2023/09/05 05:53:28;;;;;;;18.20;14.85;;;16.60;84.10;;;;;;4957581;28;20173;-75
2023/09/05 05:55:53;;;;;;;17.45;14.52;;;16.60;84.10;;;;;;4958061;28;20019;-75
2023/09/05 05:58:19;;;;;;;18.23;13.90;;;16.60;84.20;;;;;;4955358;28;20105;-77
2023/09/05 06:00:51;;;;;;;15.57;13.00;;;16.70;84.10;;;;;;4962307;28;20073;-77
2023/09/05 06:03:17;;;;;;;17.42;12.65;;;16.70;84.10;;;;;;4960697;28;20035;-78
2023/09/05 06:05:44;;;;;;;17.48;12.40;;;16.80;84.00;;;;;;4955838;28;20034;-77
2023/09/05 06:08:10;;;;;;;15.98;12.70;;;16.80;83.90;;;;;;4957156;28;20939;-77
2023/09/05 06:10:35;;;;;;;15.77;12.35;;;16.90;83.80;;;;;;4958940;28;20526;-78
2023/09/05 06:13:01;;;;;;;20.05;12.32;;;16.90;83.60;;;;;;4963911;28;20047;-77
2023/09/05 06:15:27;;;;;;;20.38;12.05;;;17.00;83.30;;;;;;4961775;28;20058;-77
2023/09/05 06:17:53;;;;;;;19.45;12.75;;;17.10;83.20;;;;;;4959282;28;20031;-77
2023/09/05 06:20:19;;;;;;;14.68;11.80;;;17.10;82.90;;;;;;4962783;28;20043;-77
2023/09/05 06:22:45;;;;;;;13.85;10.95;;;17.20;82.60;;;;;;4958574;28;20085;-75
2023/09/05 06:25:10;;;;;;;14.90;11.13;;;17.30;82.40;;;;;;4960916;28;20062;-75
2023/09/05 06:27:36;;;;;;;14.18;10.90;;;17.30;82.30;;;;;;4959961;28;20074;-75
2023/09/05 06:30:03;;;;;;;17.38;10.48;;;17.40;82.10;;;;;;4961689;28;20066;-75
2023/09/05 06:32:29;;;;;;;15.27;11.00;;;17.50;81.70;;;;;;4959041;28;20030;-75
2023/09/05 06:34:55;;;;;;;13.43;10.10;;;17.60;81.30;;;;;;4963908;28;20030;-75
2023/09/05 06:37:24;;;;;;;14.48;10.07;;;17.60;81.10;;;;;;4958548;28;20432;-75
2023/09/05 06:39:50;;;;;;;13.05;9.65;;;17.70;80.80;;;;;;4966220;28;20031;-75
2023/09/05 06:42:16;;;;;;;12.77;9.68;;;17.80;80.40;;;;;;4968057;28;20087;-76
2023/09/05 06:44:44;;;;;;;18.35;10.80;;;18.00;80.30;;;;;;4960502;28;20030;-74
2023/09/05 06:47:09;;;;;;;13.45;9.75;;;18.10;79.80;;;;;;4961646;28;20030;-73
2023/09/05 06:49:35;;;;;;;13.73;9.13;;;18.10;79.50;;;;;;4961838;28;20138;-73
2023/09/05 06:52:01;;;;;;;16.73;9.25;;;18.30;79.00;;;;;;4961758;28;20042;-72
2023/09/05 06:54:26;;;;;;;17.10;9.63;;;18.40;78.80;;;;;;4947044;28;20031;-72
2023/09/05 06:56:52;;;;;;;13.10;9.75;;;18.50;78.00;;;;;;4957017;28;20134;-74
2023/09/05 06:59:18;;;;;;;15.32;9.48;;;18.60;77.70;;;;;;4975459;28;20019;-72
2023/09/05 07:01:44;;;;;;;11.80;8.93;;;18.80;77.20;;;;;;4960733;28;20027;-73
2023/09/05 07:04:11;;;;;;;10.95;9.35;;;19.00;77.10;;;;;;4958582;28;20054;-73
2023/09/05 07:06:36;;;;;;;10.35;8.13;;;19.10;76.80;;;;;;4962121;28;20117;-74
2023/09/05 07:09:03;;;;;;;11.68;9.07;;;19.30;76.40;;;;;;4961498;28;20106;-73
2023/09/05 07:11:28;;;;;;;10.68;8.32;;;19.50;75.60;;;;;;4965603;28;20117;-74
2023/09/05 07:13:54;;;;;;;15.90;9.02;;;19.60;74.40;;;;;;4968937;28;20439;-75
2023/09/05 07:16:20;;;;;;;13.52;7.95;;;19.80;73.80;;;;;;4982721;28;20114;-74
2023/09/05 07:18:45;;;;;;;12.07;7.93;;;19.90;73.10;;;;;;4960319;28;20068;-74
2023/09/05 07:21:11;;;;;;;9.38;6.97;;;20.10;73.40;;;;;;4962884;28;20746;-75
2023/09/05 07:23:37;;;;;;;11.52;7.90;;;20.20;72.90;;;;;;4991897;28;20035;-73
2023/09/05 07:26:07;;;;;;;12.57;7.55;;;20.40;72.60;;;;;;4971234;28;20154;-74
2023/09/05 07:28:33;;;;;;;13.57;7.82;;;20.60;72.20;;;;;;4965020;28;20074;-74
2023/09/05 07:31:00;;;;;;;10.50;6.75;;;20.80;71.80;;;;;;4960690;28;20054;-73
2023/09/05 07:33:26;;;;;;;10.63;7.30;;;21.00;71.30;;;;;;4963443;28;20080;-73
2023/09/05 07:35:51;;;;;;;10.00;6.65;;;21.20;70.50;;;;;;4968472;28;20113;-75
2023/09/05 07:38:20;;;;;;;9.82;6.95;;;21.40;70.50;;;;;;4986463;28;20091;-73
2023/09/05 07:41:00;;;;;;;11.25;7.18;;;21.60;70.00;;;;;;4967237;28;20036;-74
2023/09/05 07:43:26;;;;;;;10.05;6.85;;;21.70;69.20;;;;;;4963405;28;20480;-74
2023/09/05 07:45:51;;;;;;;9.60;6.88;;;21.90;68.30;;;;;;4960950;28;20035;-73
2023/09/05 07:48:17;;;;;;;11.60;6.65;;;22.10;68.60;;;;;;4958025;28;20023;-73
2023/09/05 07:50:43;;;;;;;10.40;6.88;;;22.10;67.40;;;;;;4964926;28;20027;-73
2023/09/05 07:53:08;;;;;;;9.88;6.03;;;22.40;67.80;;;;;;4948379;28;20044;-73
2023/09/05 07:55:34;;;;;;;10.15;6.35;;;22.60;67.10;;;;;;4949631;28;20393;-72
2023/09/05 07:57:59;;;;;;;8.57;5.70;;;22.70;65.90;;;;;;5005444;28;21336;-73
2023/09/05 08:00:26;;;;;;;13.05;5.88;;;22.80;65.00;;;;;;5047922;28;20028;-73
2023/09/05 08:02:52;;;;;;;7.75;4.88;;;23.00;65.10;;;;;;4984439;28;20490;-76
2023/09/05 08:05:19;;;;;;;11.40;5.53;;;23.20;65.00;;;;;;4944171;28;20102;-74
2023/09/05 08:07:45;;;;;;;7.95;4.80;;;23.30;63.40;;;;;;4942976;28;21092;-73
2023/09/05 08:10:11;;;;;;;8.05;4.82;;;23.50;64.70;;;;;;4946641;28;20035;-75
2023/09/05 08:12:37;;;;;;;6.63;4.35;;;23.50;63.00;;;;;;4944185;28;20031;-75
2023/09/05 08:15:05;;;;;;;7.28;4.13;;;23.60;62.60;;;;;;4944380;28;20413;-75
2023/09/05 08:17:31;;;;;;;7.68;3.83;;;23.80;61.80;;;;;;4939821;28;20432;-74
2023/09/05 08:19:58;;;;;;;7.55;3.60;;;23.90;61.90;;;;;;4943207;28;20027;-74
2023/09/05 08:22:24;;;;;;;6.75;4.00;;;24.10;62.30;;;;;;4942832;28;20503;-74
2023/09/05 08:24:51;;;;;;;7.43;3.90;;;24.30;60.40;;;;;;4969204;28;20027;-75
2023/09/05 08:27:19;;;;;;;6.95;3.80;;;24.40;60.60;;;;;;4955373;28;20051;-74
2023/09/05 08:29:45;;;;;;;7.25;3.30;;;24.60;60.70;;;;;;4944293;28;20035;-74
2023/09/05 08:32:11;;;;;;;5.68;3.20;;;24.90;59.70;;;;;;4945123;28;20243;-74
2023/09/05 08:34:40;;;;;;;5.60;3.17;;;25.10;59.10;;;;;;4945769;28;20034;-73
2023/09/05 08:37:06;;;;;;;6.30;3.60;;;25.30;57.80;;;;;;4944589;28;20041;-73
2023/09/05 08:39:32;;;;;;;8.07;3.63;;;25.50;57.50;;;;;;4959133;28;20031;-73
2023/09/05 08:41:58;;;;;;;7.50;3.92;;;25.60;56.60;;;;;;4961098;28;20046;-73
2023/09/05 08:44:24;;;;;;;8.45;3.90;;;25.70;55.60;;;;;;4961992;28;20065;-73
2023/09/05 08:46:51;;;;;;;7.20;3.28;;;25.80;54.30;;;;;;4962014;28;20034;-73
2023/09/05 08:49:17;;;;;;;7.18;3.33;;;25.80;54.70;;;;;;4960786;28;20621;-72
2023/09/05 08:51:44;;;;;;;8.98;3.70;;;25.90;55.30;;;;;;4958109;28;20050;-73
2023/09/05 08:54:15;;;;;;;8.23;3.53;;;26.00;54.80;;;;;;4964137;28;20149;-74
2023/09/05 08:56:41;;;;;;;5.72;3.22;;;26.00;54.10;;;;;;4958411;28;20088;-75
2023/09/05 08:59:08;;;;;;;6.35;3.95;;;26.10;55.30;;;;;;4959634;28;20029;-74
2023/09/05 09:01:35;;;;;;;8.05;3.40;;;26.20;54.10;;;;;;4956393;28;20027;-74
2023/09/05 09:04:01;;;;;;;7.55;3.88;;;26.30;54.70;;;;;;4963821;28;20037;-74
2023/09/05 09:06:26;;;;;;;5.85;3.78;;;26.50;53.10;;;;;;4960245;28;20023;-74
2023/09/05 09:08:53;;;;;;;6.22;3.28;;;26.70;53.50;;;;;;4957360;28;20050;-74
2023/09/05 09:11:20;;;;;;;7.28;3.50;;;26.60;53.50;;;;;;4959942;28;20027;-73
2023/09/05 09:13:49;;;;;;;6.05;3.83;;;26.60;52.40;;;;;;4958184;28;20042;-74
2023/09/05 09:16:17;;;;;;;5.75;3.60;;;26.60;51.60;;;;;;4955297;28;20023;-74
2023/09/05 09:18:46;;;;;;;6.90;3.65;;;26.70;52.00;;;;;;4958487;28;20062;-74
2023/09/05 09:21:16;;;;;;;6.90;3.58;;;26.70;52.20;;;;;;4959439;28;20066;-73
2023/09/05 09:23:42;;;;;;;5.70;3.55;;;26.90;52.90;;;;;;4961427;28;20031;-74
2023/09/05 09:26:08;;;;;;;9.27;3.80;;;26.90;51.40;;;;;;4960525;28;20034;-72
2023/09/05 09:28:36;;;;;;;5.90;3.10;;;26.80;52.00;;;;;;4961148;28;20054;-74
2023/09/05 09:31:12;;;;;;;6.32;3.67;;;26.80;52.40;;;;;;4960650;28;20550;-73
2023/09/05 09:33:39;;;;;;;9.75;3.75;;;26.80;51.30;;;;;;4962278;28;20039;-74
2023/09/05 09:36:10;;;;;;;8.80;3.60;;;27.00;52.50;;;;;;4964306;28;20022;-73
2023/09/05 09:38:38;;;;;;;7.18;3.97;;;27.20;51.20;;;;;;4963118;28;20039;-73
2023/09/05 09:41:05;;;;;;;5.75;3.35;;;27.30;50.80;;;;;;4960221;28;20037;-75
2023/09/05 09:43:33;;;;;;;7.28;3.70;;;27.30;51.30;;;;;;4963566;28;20388;-74
2023/09/05 09:46:00;;;;;;;8.15;3.78;;;27.40;50.20;;;;;;4957012;28;20023;-75
2023/09/05 09:48:28;;;;;;;8.93;3.47;;;27.30;50.50;;;;;;4959375;28;20037;-73
2023/09/05 09:50:56;;;;;;;7.47;3.38;;;27.40;49.60;;;;;;4959696;28;20089;-74
2023/09/05 09:53:30;;;;;;;7.82;3.67;;;27.40;50.10;;;;;;4959127;28;20042;-73
2023/09/05 09:55:57;;;;;;;7.93;3.55;;;27.40;50.20;;;;;;4959781;28;20038;-74
2023/09/05 09:58:25;;;;;;;6.57;3.50;;;27.50;51.00;;;;;;4960938;28;20035;-74
2023/09/05 10:00:51;;;;;;;7.18;3.30;;;27.60;50.00;;;;;;4955501;28;20538;-74
2023/09/05 10:03:18;;;;;;;6.20;3.35;;;27.70;50.00;;;;;;4958833;28;20039;-74
2023/09/05 10:05:45;;;;;;;6.03;3.50;;;27.90;50.50;;;;;;4966102;28;20042;-74
2023/09/05 10:08:12;;;;;;;7.55;3.60;;;28.00;49.40;;;;;;4955976;28;20541;-73
2023/09/05 10:10:41;;;;;;;9.18;4.00;;;28.10;50.30;;;;;;4963849;28;20378;-74
2023/09/05 10:13:11;;;;;;;8.15;3.40;;;28.00;49.60;;;;;;4964402;28;20043;-74
2023/09/05 10:15:39;;;;;;;8.35;4.93;;;28.00;49.80;;;;;;4961930;28;20465;-73
2023/09/05 10:18:09;;;;;;;6.80;3.78;;;28.10;49.90;;;;;;4961070;28;20042;-73
2023/09/05 10:20:38;;;;;;;7.47;3.88;;;28.10;49.70;;;;;;4960842;28;20115;-73
2023/09/05 10:23:05;;;;;;;7.22;3.95;;;28.10;49.30;;;;;;4963224;28;20042;-75
2023/09/05 10:25:32;;;;;;;8.18;4.15;;;28.20;48.90;;;;;;4966989;28;20038;-73
2023/09/05 10:27:58;;;;;;;8.18;3.60;;;28.40;50.00;;;;;;4965127;28;20401;-74
2023/09/05 10:30:24;;;;;;;9.52;4.18;;;28.70;49.80;;;;;;4967245;28;20027;-74
2023/09/05 10:32:53;;;;;;;6.43;3.35;;;28.70;48.80;;;;;;4962433;28;20100;-75
2023/09/05 10:35:20;;;;;;;8.43;3.90;;;28.90;49.20;;;;;;4968570;28;20026;-73
2023/09/05 10:37:56;;;;;;;8.77;3.63;;;28.90;49.50;;;;;;4952422;28;20039;-74
2023/09/05 10:40:38;;;;;;;6.32;3.72;;;29.10;49.40;;;;;;4943755;28;20031;-75
2023/09/05 10:43:06;;;;;;;5.53;3.40;;;29.00;48.00;;;;;;4967584;28;20049;-74
2023/09/05 10:45:37;;;;;;;7.18;3.65;;;28.90;48.10;;;;;;4946853;28;20031;-74
2023/09/05 10:48:09;;;;;;;7.55;3.92;;;28.90;48.20;;;;;;4947864;28;20043;-73
2023/09/05 10:51:13;;;;;;;7.38;3.55;;;29.00;48.60;;;;;;4952485;28;20389;-74
2023/09/05 10:53:44;;;;;;;7.43;4.20;;;29.00;48.60;;;;;;4959225;28;20031;-74
2023/09/05 10:56:41;;;;;;;8.63;3.78;;;29.00;48.20;;;;;;4960243;28;20571;-74
2023/09/05 10:59:26;;;;;;;8.07;3.42;;;28.80;49.30;;;;;;4939428;28;20038;-73
2023/09/05 11:02:00;;;;;;;8.32;3.95;;;28.90;48.80;;;;;;4945133;28;20043;-73
2023/09/05 11:04:29;;;;;;;6.55;3.83;;;29.00;48.90;;;;;;4961540;28;20157;-73
2023/09/05 11:07:06;;;;;;;8.38;4.07;;;29.00;49.90;;;;;;4961366;28;20043;-73
2023/09/05 11:09:49;;;;;;;9.18;4.00;;;29.00;48.90;;;;;;4959781;28;20499;-73
2023/09/05 11:12:16;;;;;;;6.30;3.83;;;29.10;48.90;;;;;;4978330;28;20114;-73
2023/09/05 11:14:42;;;;;;;8.85;3.67;;;29.40;48.60;;;;;;4960885;28;20622;-74
2023/09/05 11:17:12;;;;;;;8.00;4.10;;;29.30;50.00;;;;;;4961511;28;20030;-73
2023/09/05 11:19:42;;;;;;;9.73;3.78;;;29.50;48.70;;;;;;4961944;28;20050;-73
2023/09/05 11:22:15;;;;;;;9.05;3.67;;;29.50;48.90;;;;;;4961668;28;20047;-73
2023/09/05 11:24:58;;;;;;;7.90;3.42;;;29.70;49.70;;;;;;4960701;28;20050;-73
2023/09/05 11:27:26;;;;;;;7.38;3.90;;;29.80;49.50;;;;;;4959672;28;20464;-74
2023/09/05 11:29:55;;;;;;;6.35;3.35;;;29.60;48.50;;;;;;4958878;28;20144;-73
2023/09/05 11:32:31;;;;;;;7.75;3.65;;;29.70;49.40;;;;;;4959339;28;20045;-74
2023/09/05 11:34:57;;;;;;;8.73;4.05;;;29.70;49.30;;;;;;4961388;28;20524;-74
2023/09/05 11:37:23;;;;;;;8.30;3.83;;;29.60;48.00;;;;;;4959179;28;20110;-73
2023/09/05 11:39:50;;;;;;;8.77;4.35;;;29.60;49.60;;;;;;4959693;28;20032;-73
2023/09/05 11:42:22;;;;;;;6.20;3.72;;;29.60;49.50;;;;;;4944223;28;20715;-73
2023/09/05 11:44:49;;;;;;;6.38;3.33;;;29.60;49.90;;;;;;4947292;28;20440;-73
2023/09/05 11:47:15;;;;;;;8.98;3.70;;;29.70;50.00;;;;;;4940466;28;20066;-74
2023/09/05 11:49:41;;;;;;;7.20;4.15;;;29.80;49.70;;;;;;4943288;28;20524;-73
2023/09/05 11:52:09;;;;;;;8.35;4.15;;;29.70;50.10;;;;;;4945343;28;20118;-73
2023/09/05 11:54:35;;;;;;;10.20;4.10;;;29.60;49.90;;;;;;4943910;28;20038;-73
2023/09/05 11:57:02;;;;;;;7.60;3.83;;;29.50;49.80;;;;;;4945666;28;20031;-74
2023/09/05 11:59:28;;;;;;;9.00;4.15;;;29.60;49.70;;;;;;4941151;28;20118;-73
2023/09/05 12:01:54;;;;;;;7.90;3.90;;;29.60;50.90;;;;;;4937485;28;20105;-73
2023/09/05 12:04:22;;;;;;;6.55;3.95;;;29.80;50.70;;;;;;4939466;28;20027;-73
2023/09/05 12:06:51;;;;;;;8.25;4.13;;;30.00;50.20;;;;;;4946317;28;20023;-73
2023/09/05 12:09:20;;;;;;;8.85;4.40;;;30.30;49.50;;;;;;4937184;28;20134;-74
2023/09/05 12:11:48;;;;;;;8.55;3.67;;;30.30;49.50;;;;;;4948313;28;20042;-73
2023/09/05 12:14:16;;;;;;;7.47;3.65;;;30.40;49.90;;;;;;4941823;28;20023;-73
2023/09/05 12:16:47;;;;;;;6.82;3.85;;;30.30;50.30;;;;;;4942645;28;20114;-73
2023/09/05 12:19:15;;;;;;;6.30;3.85;;;30.40;49.80;;;;;;4945945;28;20969;-74
2023/09/05 12:21:45;;;;;;;6.43;3.88;;;30.40;49.30;;;;;;4948660;28;20563;-72
2023/09/05 12:24:25;;;;;;;9.48;4.22;;;30.50;49.70;;;;;;4962423;28;20031;-73
2023/09/05 12:26:59;;;;;;;9.85;4.22;;;30.30;48.90;;;;;;4961475;28;20089;-73
2023/09/05 12:29:40;;;;;;;8.15;4.20;;;30.30;48.80;;;;;;4962793;28;20080;-72
2023/09/05 12:32:06;;;;;;;8.00;4.13;;;30.40;49.90;;;;;;4955434;28;20043;-72
2023/09/05 12:34:32;;;;;;;7.50;4.20;;;30.50;50.00;;;;;;4965985;28;20034;-73
2023/09/05 12:36:57;;;;;;;7.80;3.95;;;30.60;50.00;;;;;;4960209;28;20031;-73